createdAt,value
2019-05-23T00:00:29.260Z,12.90
2019-05-23T00:02:57.601Z,12.90
2019-05-23T00:05:26.772Z,12.80
2019-05-23T00:07:55.012Z,12.70
2019-05-23T00:10:36.246Z,12.70
2019-05-23T00:13:05.469Z,12.70
2019-05-23T00:15:35.066Z,12.60
2019-05-23T00:18:04.498Z,12.40
2019-05-23T00:20:32.785Z,12.50
2019-05-23T00:23:01.193Z,12.60
2019-05-23T00:25:29.002Z,12.50
2019-05-23T00:27:57.112Z,12.60
2019-05-23T00:30:44.602Z,12.40
2019-05-23T00:33:13.779Z,12.30
2019-05-23T00:35:41.917Z,12.40
2019-05-23T00:38:09.454Z,12.40
2019-05-23T00:40:37.288Z,12.40
2019-05-23T00:43:05.497Z,12.50
2019-05-23T00:45:33.067Z,12.30
2019-05-23T00:48:01.140Z,12.40
2019-05-23T00:50:29.777Z,12.40
2019-05-23T00:52:57.480Z,12.40
2019-05-23T00:55:26.120Z,12.30
2019-05-23T00:57:54.497Z,12.30
2019-05-23T01:00:23.533Z,12.20
2019-05-23T01:02:53.012Z,12.20
2019-05-23T01:05:20.624Z,12.20
2019-05-23T01:07:48.196Z,12.20
2019-05-23T01:10:17.372Z,12.00
2019-05-23T01:12:45.672Z,12.00
2019-05-23T01:15:13.898Z,12.00
2019-05-23T01:17:42.224Z,12.00
2019-05-23T01:20:11.397Z,12.00
2019-05-23T01:22:39.353Z,12.10
2019-05-23T01:25:08.841Z,12.10
2019-05-23T01:27:36.404Z,12.00
2019-05-23T01:30:09.436Z,11.90
2019-05-23T01:32:41.780Z,11.90
2019-05-23T01:35:09.950Z,11.90
2019-05-23T01:37:37.866Z,11.80
2019-05-23T01:40:07.436Z,11.80
2019-05-23T01:42:35.690Z,11.70
2019-05-23T01:45:03.449Z,11.40
2019-05-23T01:47:32.290Z,11.50
2019-05-23T01:49:59.816Z,11.60
2019-05-23T01:52:27.453Z,11.70
2019-05-23T01:54:55.462Z,11.70
2019-05-23T01:57:23.406Z,11.60
2019-05-23T02:00:06.084Z,11.70
2019-05-23T02:02:21.161Z,11.40
2019-05-23T02:04:48.900Z,11.40
2019-05-23T02:07:16.524Z,11.50
2019-05-23T02:09:44.315Z,11.60
2019-05-23T02:12:12.121Z,11.50
2019-05-23T02:14:42.228Z,11.40
2019-05-23T02:17:11.138Z,11.20
2019-05-23T02:19:38.928Z,11.30
2019-05-23T02:22:07.136Z,11.50
2019-05-23T02:24:36.049Z,11.40
2019-05-23T02:27:05.148Z,11.50
2019-05-23T02:29:34.024Z,11.40
2019-05-23T02:32:03.362Z,11.30
2019-05-23T02:34:31.192Z,11.30
2019-05-23T02:37:00.379Z,11.30
2019-05-23T02:39:32.488Z,11.40
2019-05-23T02:42:01.665Z,11.30
2019-05-23T02:44:30.866Z,11.40
2019-05-23T02:47:00.060Z,11.30
2019-05-23T02:49:28.610Z,11.30
2019-05-23T02:51:56.624Z,11.40
2019-05-23T02:54:26.103Z,11.30
2019-05-23T02:56:53.918Z,11.40
2019-05-23T02:59:29.097Z,11.30
2019-05-23T03:02:02.865Z,11.30
2019-05-23T03:04:31.039Z,11.30
2019-05-23T03:07:03.126Z,11.40
2019-05-23T03:09:34.026Z,11.40
2019-05-23T03:12:02.065Z,11.30
2019-05-23T03:14:30.854Z,11.30
2019-05-23T03:17:02.652Z,11.30
2019-05-23T03:19:32.197Z,11.20
2019-05-23T03:22:01.864Z,11.20
2019-05-23T03:24:29.742Z,11.20
2019-05-23T03:27:00.128Z,11.20
2019-05-23T03:29:29.353Z,11.10
2019-05-23T03:31:58.560Z,11.10
2019-05-23T03:34:27.772Z,11.10
2019-05-23T03:36:57.767Z,11.20
2019-05-23T03:39:25.896Z,11.20
2019-05-23T03:41:53.461Z,11.20
2019-05-23T03:44:21.865Z,10.90
2019-05-23T03:46:51.072Z,11.00
2019-05-23T03:49:19.382Z,11.00
2019-05-23T03:51:46.958Z,10.90
2019-05-23T03:54:16.137Z,10.80
2019-05-23T03:56:43.977Z,10.80
2019-05-23T03:59:12.588Z,10.80
2019-05-23T04:01:48.206Z,10.70
2019-05-23T04:04:12.580Z,10.70
2019-05-23T04:06:40.185Z,10.60
2019-05-23T04:09:07.920Z,10.50
2019-05-23T04:11:35.819Z,10.60
2019-05-23T04:14:03.906Z,10.70
2019-05-23T04:16:31.558Z,10.80
2019-05-23T04:18:59.121Z,10.80
2019-05-23T04:21:26.660Z,10.70
2019-05-23T04:23:54.220Z,10.60
2019-05-23T04:26:22.835Z,10.40
2019-05-23T04:28:50.389Z,10.50
2019-05-23T04:31:18.099Z,10.50
2019-05-23T04:33:45.661Z,10.60
2019-05-23T04:36:13.373Z,10.50
2019-05-23T04:38:41.310Z,10.50
2019-05-23T04:41:28.961Z,10.60
2019-05-23T04:43:56.530Z,10.60
2019-05-23T04:46:24.077Z,10.70
2019-05-23T04:48:51.810Z,10.80
2019-05-23T04:51:19.706Z,10.70
2019-05-23T04:53:47.338Z,10.80
2019-05-23T04:56:14.946Z,10.70
2019-05-23T04:58:42.587Z,10.70
2019-05-23T05:01:10.543Z,10.50
2019-05-23T05:03:38.483Z,10.60
2019-05-23T05:06:06.185Z,10.50
2019-05-23T05:08:33.744Z,10.70
2019-05-23T05:11:01.289Z,10.80
2019-05-23T05:13:28.985Z,10.80
2019-05-23T05:15:57.446Z,10.90
2019-05-23T05:18:25.106Z,11.00
2019-05-23T05:20:52.778Z,10.80
2019-05-23T05:23:20.633Z,11.00
2019-05-23T05:25:48.494Z,11.10
2019-05-23T05:28:16.361Z,11.20
2019-05-23T05:30:44.198Z,11.30
2019-05-23T05:33:12.018Z,11.30
2019-05-23T05:35:39.778Z,11.40
2019-05-23T05:38:07.366Z,11.30
2019-05-23T05:40:35.032Z,11.30
2019-05-23T05:43:02.700Z,11.20
2019-05-23T05:45:30.672Z,11.20
2019-05-23T05:47:58.194Z,11.20
2019-05-23T05:50:25.932Z,11.30
2019-05-23T05:52:53.472Z,11.30
2019-05-23T05:55:21.045Z,11.40
2019-05-23T05:57:48.587Z,11.40
2019-05-23T06:00:26.874Z,11.30
2019-05-23T06:03:04.538Z,11.10
2019-05-23T06:05:42.069Z,11.10
2019-05-23T06:08:11.620Z,11.30
2019-05-23T06:10:39.913Z,11.40
2019-05-23T06:13:07.472Z,11.50
2019-05-23T06:15:35.453Z,11.60
2019-05-23T06:18:03.253Z,11.70
2019-05-23T06:20:31.055Z,11.60
2019-05-23T06:22:58.640Z,11.80
2019-05-23T06:25:26.481Z,11.80
2019-05-23T06:27:54.288Z,12.00
2019-05-23T06:30:21.852Z,12.10
2019-05-23T06:32:49.417Z,12.10
2019-05-23T06:35:17.147Z,12.10
2019-05-23T06:37:45.153Z,12.30
2019-05-23T06:40:13.356Z,12.40
2019-05-23T06:42:41.145Z,12.50
2019-05-23T06:45:10.490Z,12.40
2019-05-23T06:47:39.391Z,12.40
2019-05-23T06:50:09.098Z,12.50
2019-05-23T06:52:36.639Z,12.70
2019-05-23T06:55:05.386Z,12.60
2019-05-23T06:57:32.921Z,12.80
2019-05-23T07:00:00.505Z,12.80
2019-05-23T07:02:31.901Z,12.90
2019-05-23T07:04:57.483Z,13.00
2019-05-23T07:07:25.188Z,13.10
2019-05-23T07:09:52.793Z,13.20
2019-05-23T07:12:20.357Z,13.30
2019-05-23T07:14:48.477Z,13.40
2019-05-23T07:17:17.665Z,13.50
2019-05-23T07:19:45.200Z,13.50
2019-05-23T07:22:12.765Z,13.70
2019-05-23T07:24:56.897Z,13.80
2019-05-23T07:27:09.590Z,13.80
2019-05-23T07:29:37.470Z,14.00
2019-05-23T07:32:06.151Z,14.20
2019-05-23T07:34:33.792Z,14.30
2019-05-23T07:37:01.360Z,14.50
2019-05-23T07:39:29.141Z,14.60
2019-05-23T07:41:57.080Z,14.80
2019-05-23T07:44:25.188Z,14.90
2019-05-23T07:46:53.266Z,15.10
2019-05-23T07:49:21.129Z,15.10
2019-05-23T07:51:48.712Z,15.30
2019-05-23T07:57:15.353Z,15.60
2019-05-23T07:59:43.259Z,15.80
2019-05-23T08:02:15.922Z,16.00
2019-05-23T08:04:43.541Z,16.20
2019-05-23T08:07:12.087Z,16.40
2019-05-23T08:09:40.614Z,16.50
2019-05-23T08:12:08.169Z,16.70
2019-05-23T08:14:36.271Z,17.00
2019-05-23T08:17:04.935Z,17.00
2019-05-23T08:19:48.599Z,17.20
2019-05-23T08:22:02.447Z,17.50
2019-05-23T08:24:29.973Z,17.70
2019-05-23T08:26:57.551Z,17.80
2019-05-23T08:29:26.846Z,18.00
2019-05-23T08:31:55.044Z,18.00
2019-05-23T08:34:40.056Z,18.00
2019-05-23T08:36:52.862Z,18.20
2019-05-23T08:39:21.982Z,18.50
2019-05-23T08:41:50.094Z,18.70
2019-05-23T08:44:18.041Z,18.80
2019-05-23T08:46:46.414Z,18.80
2019-05-23T08:49:13.965Z,18.90
2019-05-23T08:51:41.500Z,19.10
2019-05-23T08:54:09.161Z,19.30
2019-05-23T08:56:37.345Z,19.50
2019-05-23T08:59:05.774Z,19.60
2019-05-23T09:01:33.309Z,19.60
2019-05-23T09:04:01.985Z,19.70
2019-05-23T09:06:29.528Z,19.80
2019-05-23T09:08:57.095Z,19.90
2019-05-23T09:11:24.970Z,19.70
2019-05-23T09:13:52.911Z,19.50
2019-05-23T09:16:20.513Z,19.70
2019-05-23T09:18:48.077Z,19.80
2019-05-23T09:21:15.614Z,19.30
2019-05-23T09:23:43.188Z,19.20
2019-05-23T09:26:11.122Z,19.30
2019-05-23T09:28:39.087Z,19.30
2019-05-23T09:31:06.671Z,19.40
2019-05-23T09:33:34.537Z,19.60
2019-05-23T09:36:02.914Z,19.20
2019-05-23T09:38:30.490Z,18.80
2019-05-23T09:40:58.350Z,18.80
2019-05-23T09:43:25.908Z,19.20
2019-05-23T09:45:53.444Z,19.10
2019-05-23T09:48:21.013Z,19.30
2019-05-23T09:50:48.550Z,19.50
2019-05-23T09:53:17.492Z,19.60
2019-05-23T09:55:45.341Z,19.60
2019-05-23T09:58:13.085Z,19.80
2019-05-23T10:00:41.498Z,20.10
2019-05-23T10:03:09.765Z,20.20
2019-05-23T10:05:43.357Z,20.20
2019-05-23T10:08:07.653Z,20.40
2019-05-23T10:10:36.130Z,20.40
2019-05-23T10:13:04.505Z,20.50
2019-05-23T10:15:39.634Z,20.50
2019-05-23T10:18:09.705Z,20.70
2019-05-23T10:20:38.173Z,20.60
2019-05-23T10:23:05.727Z,20.70
2019-05-23T10:25:33.298Z,21.00
2019-05-23T10:28:00.845Z,21.10
2019-05-23T10:30:29.709Z,21.20
2019-05-23T10:32:57.259Z,20.90
2019-05-23T10:35:24.985Z,21.00
2019-05-23T10:37:52.550Z,21.00
2019-05-23T10:40:20.172Z,20.90
2019-05-23T10:42:47.723Z,21.00
2019-05-23T10:45:15.295Z,21.00
2019-05-23T10:47:42.853Z,21.20
2019-05-23T10:50:10.941Z,21.40
2019-05-23T10:52:38.773Z,21.20
2019-05-23T10:55:06.361Z,21.50
2019-05-23T10:57:33.901Z,21.50
2019-05-23T11:00:01.866Z,21.40
2019-05-23T11:02:29.579Z,21.30
2019-05-23T11:04:57.213Z,21.30
2019-05-23T11:07:25.224Z,21.20
2019-05-23T11:09:52.785Z,21.30
2019-05-23T11:12:20.592Z,21.50
2019-05-23T11:14:48.174Z,21.50
2019-05-23T11:17:15.697Z,21.50
2019-05-23T11:19:43.271Z,21.50
2019-05-23T11:22:11.145Z,21.40
2019-05-23T11:24:38.730Z,21.70
2019-05-23T11:27:06.337Z,22.00
2019-05-23T11:29:33.940Z,22.00
2019-05-23T11:32:01.950Z,22.00
2019-05-23T11:34:29.945Z,22.00
2019-05-23T11:36:57.895Z,22.00
2019-05-23T11:39:26.660Z,22.10
2019-05-23T11:41:54.193Z,22.00
2019-05-23T11:44:22.030Z,22.00
2019-05-23T11:46:50.263Z,22.20
2019-05-23T11:49:17.796Z,22.00
2019-05-23T11:51:46.246Z,22.00
2019-05-23T11:54:13.778Z,22.00
2019-05-23T11:56:41.518Z,22.10
2019-05-23T11:59:09.335Z,22.10
2019-05-23T12:01:41.641Z,22.20
2019-05-23T12:04:10.824Z,21.90
2019-05-23T12:06:54.388Z,21.70
2019-05-23T12:09:09.857Z,21.70
2019-05-23T12:11:42.312Z,21.70
2019-05-23T12:14:06.982Z,21.90
2019-05-23T12:16:34.713Z,22.00
2019-05-23T12:19:02.624Z,21.90
2019-05-23T12:21:30.181Z,21.90
2019-05-23T12:23:57.717Z,22.30
2019-05-23T12:26:25.613Z,22.40
2019-05-23T12:28:53.147Z,22.50
2019-05-23T12:31:21.052Z,22.20
2019-05-23T12:33:48.593Z,22.00
2019-05-23T12:36:16.717Z,22.10
2019-05-23T12:38:44.253Z,22.20
2019-05-23T12:41:13.452Z,22.20
2019-05-23T12:43:40.988Z,22.40
2019-05-23T12:46:08.578Z,22.40
2019-05-23T12:48:49.734Z,22.50
2019-05-23T12:51:21.349Z,22.40
2019-05-23T12:53:49.058Z,22.40
2019-05-23T12:56:16.646Z,22.40
2019-05-23T12:58:45.280Z,22.30
2019-05-23T13:01:13.252Z,22.10
2019-05-23T13:03:41.105Z,22.00
2019-05-23T13:06:08.641Z,21.90
2019-05-23T13:08:36.947Z,22.10
2019-05-23T13:11:04.493Z,22.20
2019-05-23T13:13:32.118Z,22.30
2019-05-23T13:15:59.672Z,22.50
2019-05-23T13:18:27.513Z,22.40
2019-05-23T13:20:59.263Z,22.50
2019-05-23T13:23:25.380Z,22.70
2019-05-23T13:25:52.948Z,22.80
2019-05-23T13:28:20.572Z,22.70
2019-05-23T13:30:48.110Z,22.60
2019-05-23T13:33:16.058Z,22.60
2019-05-23T13:35:44.064Z,22.60
2019-05-23T13:38:11.957Z,22.50
2019-05-23T13:40:39.496Z,22.60
2019-05-23T13:43:09.055Z,22.40
2019-05-23T13:45:36.662Z,22.40
2019-05-23T13:48:04.254Z,22.30
2019-05-23T13:50:32.310Z,22.40
2019-05-23T13:53:00.170Z,22.20
2019-05-23T13:55:28.665Z,22.20
2019-05-23T13:57:56.230Z,22.10
2019-05-23T14:00:24.706Z,22.00
2019-05-23T14:02:52.437Z,22.10
2019-05-23T14:05:19.977Z,22.20
2019-05-23T14:07:47.553Z,22.10
2019-05-23T14:10:15.268Z,22.10
2019-05-23T14:12:43.006Z,22.10
2019-05-23T14:15:12.993Z,22.20
2019-05-23T14:17:44.913Z,22.30
2019-05-23T14:20:12.620Z,22.20
2019-05-23T14:22:44.453Z,22.40
2019-05-23T14:25:12.025Z,22.50
2019-05-23T14:27:53.225Z,22.60
2019-05-23T14:30:37.399Z,22.50
2019-05-23T14:33:07.180Z,22.60
2019-05-23T14:35:36.658Z,22.50
2019-05-23T14:38:05.917Z,22.60
2019-05-23T14:40:33.797Z,22.60
2019-05-23T14:43:12.001Z,22.40
2019-05-23T14:45:56.038Z,22.40
2019-05-23T14:48:25.208Z,22.30
2019-05-23T14:51:00.318Z,22.20
2019-05-23T14:53:29.491Z,22.30
2019-05-23T14:55:57.326Z,22.50
2019-05-23T14:58:24.905Z,22.50
2019-05-23T15:00:53.485Z,22.60
2019-05-23T15:03:21.395Z,22.50
2019-05-23T15:05:48.952Z,22.50
2019-05-23T15:08:16.495Z,22.40
2019-05-23T15:10:44.061Z,22.50
2019-05-23T15:13:12.205Z,22.40
2019-05-23T15:15:39.781Z,22.40
2019-05-23T15:18:07.656Z,22.30
2019-05-23T15:20:35.489Z,22.10
2019-05-23T15:23:03.028Z,22.10
2019-05-23T15:25:30.614Z,22.00
2019-05-23T15:27:58.198Z,22.00
2019-05-23T15:30:25.762Z,22.10
2019-05-23T15:32:53.298Z,22.10
2019-05-23T15:35:21.223Z,22.20
2019-05-23T15:37:48.761Z,22.10
2019-05-23T15:40:16.329Z,22.00
2019-05-23T15:42:43.864Z,22.00
2019-05-23T15:45:11.449Z,21.80
2019-05-23T15:47:39.119Z,21.70
2019-05-23T15:50:11.507Z,21.70
2019-05-23T15:52:45.760Z,21.80
2019-05-23T15:55:31.365Z,21.80
2019-05-23T15:58:19.495Z,21.70
2019-05-23T16:00:50.309Z,21.60
2019-05-23T16:03:25.861Z,21.50
2019-05-23T16:05:53.962Z,21.60
2019-05-23T16:08:21.769Z,21.60
2019-05-23T16:10:49.328Z,21.40
2019-05-23T16:13:16.862Z,21.40
2019-05-23T16:15:44.792Z,21.40
2019-05-23T16:18:12.332Z,21.30
2019-05-23T16:20:39.870Z,21.40
2019-05-23T16:23:07.433Z,21.40
2019-05-23T16:25:35.041Z,21.30
2019-05-23T16:28:02.722Z,21.30
2019-05-23T16:30:30.865Z,21.30
2019-05-23T16:32:58.729Z,21.30
2019-05-23T16:35:26.604Z,21.40
2019-05-23T16:37:54.232Z,21.20
2019-05-23T16:40:21.769Z,21.20
2019-05-23T16:42:49.583Z,21.20
2019-05-23T16:45:17.114Z,21.20
2019-05-23T16:47:44.853Z,21.10
2019-05-23T16:50:12.550Z,21.10
2019-05-23T16:52:40.131Z,21.00
2019-05-23T16:55:09.638Z,21.00
2019-05-23T16:57:41.492Z,21.00
2019-05-23T17:00:26.995Z,21.00
2019-05-23T17:03:05.154Z,20.90
2019-05-23T17:05:40.289Z,20.90
2019-05-23T17:08:12.307Z,20.90
2019-05-23T17:10:44.149Z,21.00
2019-05-23T17:13:16.064Z,21.00
2019-05-23T17:15:54.440Z,20.90
2019-05-23T17:18:26.282Z,20.90
2019-05-23T17:21:07.533Z,20.90
2019-05-23T17:23:42.500Z,20.80
2019-05-23T17:26:24.294Z,20.80
2019-05-23T17:28:53.505Z,20.70
2019-05-23T17:31:39.008Z,20.60
2019-05-23T17:34:08.148Z,20.50
2019-05-23T17:36:35.741Z,20.60
2019-05-23T17:39:03.782Z,20.60
2019-05-23T17:41:31.323Z,20.50
2019-05-23T17:43:58.921Z,20.50
2019-05-23T17:46:26.443Z,20.30
2019-05-23T17:48:54.004Z,20.30
2019-05-23T17:51:21.645Z,20.30
2019-05-23T17:53:49.461Z,20.40
2019-05-23T17:56:17.702Z,20.30
2019-05-23T17:58:45.500Z,20.30
2019-05-23T18:01:13.777Z,20.20
2019-05-23T18:03:41.355Z,20.20
2019-05-23T18:06:09.389Z,20.20
2019-05-23T18:08:37.436Z,20.10
2019-05-23T18:11:06.025Z,20.00
2019-05-23T18:13:33.801Z,20.00
2019-05-23T18:16:02.143Z,20.00
2019-05-23T18:18:30.225Z,20.00
2019-05-23T18:20:59.616Z,20.00
2019-05-23T18:23:27.649Z,20.00
2019-05-23T18:25:55.279Z,19.90
2019-05-23T18:28:22.802Z,19.90
2019-05-23T18:30:52.194Z,19.90
2019-05-23T18:33:21.497Z,19.80
2019-05-23T18:35:49.080Z,19.80
2019-05-23T18:38:17.092Z,19.80
2019-05-23T18:41:00.003Z,19.70
2019-05-23T18:43:14.069Z,19.70
2019-05-23T18:45:43.008Z,19.70
2019-05-23T18:48:11.227Z,19.60
2019-05-23T18:50:40.421Z,19.50
2019-05-23T18:53:08.825Z,19.50
2019-05-23T18:55:36.561Z,19.50
2019-05-23T18:58:04.542Z,19.40
2019-05-23T19:00:42.945Z,19.30
2019-05-23T19:03:10.953Z,19.30
2019-05-23T19:05:38.797Z,19.20
2019-05-23T19:08:06.534Z,19.20
2019-05-23T19:10:34.950Z,19.20
2019-05-23T19:13:02.541Z,19.10
2019-05-23T19:15:30.241Z,19.00
2019-05-23T19:17:57.818Z,19.00
2019-05-23T19:20:25.365Z,18.90
2019-05-23T19:22:53.274Z,18.80
2019-05-23T19:25:20.919Z,18.80
2019-05-23T19:27:48.879Z,18.70
2019-05-23T19:30:16.412Z,18.70
2019-05-23T19:32:44.002Z,18.70
2019-05-23T19:35:11.540Z,18.60
2019-05-23T19:37:39.699Z,18.60
2019-05-23T19:40:08.301Z,18.60
2019-05-23T19:42:36.117Z,18.60
2019-05-23T19:45:05.329Z,18.60
2019-05-23T19:47:32.976Z,18.60
2019-05-23T19:50:00.625Z,18.60
2019-05-23T19:52:28.726Z,18.60
2019-05-23T19:54:56.261Z,18.50
2019-05-23T19:57:24.356Z,18.40
2019-05-23T19:59:51.888Z,18.30
2019-05-23T20:02:37.900Z,18.30
2019-05-23T20:05:12.596Z,18.30
2019-05-23T20:07:40.244Z,18.40
2019-05-23T20:10:08.417Z,18.40
2019-05-23T20:12:36.431Z,18.40
2019-05-23T20:15:05.077Z,18.30
2019-05-23T20:17:32.706Z,18.20
2019-05-23T20:20:00.311Z,18.30
2019-05-23T20:22:28.549Z,18.20
2019-05-23T20:24:56.082Z,18.20
2019-05-23T20:27:23.645Z,18.20
2019-05-23T20:29:51.188Z,18.20
2019-05-23T20:32:18.840Z,18.20
2019-05-23T20:34:46.782Z,18.20
2019-05-23T20:37:14.345Z,18.10
2019-05-23T20:39:42.270Z,18.10
2019-05-23T20:42:11.729Z,18.00
2019-05-23T20:44:39.584Z,18.00
2019-05-23T20:47:08.016Z,17.90
2019-05-23T20:49:35.552Z,17.90
2019-05-23T20:52:03.116Z,17.90
2019-05-23T20:54:33.546Z,17.90
2019-05-23T20:56:59.987Z,17.80
2019-05-23T20:59:27.759Z,17.80
2019-05-23T21:01:55.529Z,17.60
2019-05-23T21:04:23.097Z,17.60
2019-05-23T21:06:51.100Z,17.50
2019-05-23T21:09:18.675Z,17.40
2019-05-23T21:11:46.520Z,17.40
2019-05-23T21:14:14.260Z,17.40
2019-05-23T21:16:41.792Z,17.40
2019-05-23T21:19:09.405Z,17.30
2019-05-23T21:21:36.992Z,17.10
2019-05-23T21:24:04.890Z,17.00
2019-05-23T21:26:32.914Z,17.10
2019-05-23T21:29:00.481Z,17.00
2019-05-23T21:31:28.260Z,17.00
2019-05-23T21:33:55.820Z,16.90
2019-05-23T21:36:23.356Z,16.90
2019-05-23T21:38:50.954Z,16.80
2019-05-23T21:41:18.597Z,16.80
2019-05-23T21:43:47.820Z,16.70
2019-05-23T21:46:15.375Z,16.60
2019-05-23T21:48:42.908Z,16.50
2019-05-23T21:51:10.509Z,16.60
2019-05-23T21:53:38.159Z,16.50
2019-05-23T21:56:05.775Z,16.60
2019-05-23T21:58:33.360Z,16.60
2019-05-23T22:01:05.587Z,16.30
2019-05-23T22:03:35.308Z,16.40
2019-05-23T22:06:02.878Z,16.40
2019-05-23T22:08:30.585Z,16.30
2019-05-23T22:10:58.145Z,16.30
2019-05-23T22:13:25.777Z,16.30
2019-05-23T22:15:55.280Z,16.30
2019-05-23T22:18:22.804Z,16.30
2019-05-23T22:20:50.373Z,16.20
2019-05-23T22:23:18.080Z,16.10
2019-05-23T22:25:45.648Z,16.10
2019-05-23T22:28:13.183Z,16.00
2019-05-23T22:30:40.913Z,15.90
2019-05-23T22:33:09.207Z,15.70
2019-05-23T22:35:36.779Z,15.90
2019-05-23T22:38:04.629Z,15.90
2019-05-23T22:40:32.521Z,15.90
2019-05-23T22:43:00.302Z,15.70
2019-05-23T22:45:28.333Z,15.70
2019-05-23T22:47:55.871Z,15.70
2019-05-23T22:50:23.434Z,15.70
2019-05-23T22:52:50.970Z,15.70
2019-05-23T22:55:18.504Z,15.50
2019-05-23T22:57:46.068Z,15.50
2019-05-23T23:00:15.253Z,15.40
2019-05-23T23:02:45.918Z,15.30
2019-05-23T23:05:12.083Z,15.50
2019-05-23T23:07:40.064Z,15.30
2019-05-23T23:10:07.598Z,15.20
2019-05-23T23:12:35.588Z,15.40
2019-05-23T23:15:04.089Z,15.20
2019-05-23T23:17:31.925Z,15.40
2019-05-23T23:19:59.457Z,15.50
2019-05-23T23:22:27.016Z,15.40
2019-05-23T23:24:54.553Z,15.20
2019-05-23T23:27:22.131Z,15.20
2019-05-23T23:29:49.732Z,15.20
2019-05-23T23:32:17.312Z,15.30
2019-05-23T23:34:44.836Z,15.30
2019-05-23T23:37:12.402Z,15.20
2019-05-23T23:39:39.976Z,15.10
2019-05-23T23:42:07.877Z,15.10
2019-05-23T23:44:34.910Z,15.10
2019-05-23T23:47:21.245Z,15.10
2019-05-23T23:50:06.828Z,15.10
2019-05-23T23:52:52.352Z,15.00
2019-05-23T23:55:37.733Z,15.00
2019-05-23T23:58:04.985Z,14.80
